Time;durP1;ratioP1;P1;durP2;ratioP2;P2;SDS_P1;SDS_P2;PMS_P1;PMS_P2;Temp;Humidity;BMP_temperature;BMP_pressure;BME280_temperature;BME280_humidity;BME280_pressure;Samples;Min_cycle;Max_cycle;Signal;HPM_P1;HPM_P2
2021/07/11 00:01:09;;;;;;;9.40;8.50;;;;;;;22.59;73.98;100960.84;4915860;28;102371;-91
2021/07/11 00:03:35;;;;;;;9.63;8.70;;;;;;;22.58;73.88;100964.78;4908481;28;103197;-90
2021/07/11 00:06:02;;;;;;;8.77;7.97;;;;;;;22.58;73.61;100967.56;4931520;28;102684;-91
2021/07/11 00:08:28;;;;;;;9.20;8.32;;;;;;;22.57;73.99;100962.34;4933613;28;102632;-91
2021/07/11 00:11:00;;;;;;;9.57;8.77;;;;;;;22.59;73.86;100962.81;4914454;28;102124;-91
2021/07/11 00:13:29;;;;;;;10.00;8.02;;;;;;;22.58;73.88;100970.31;4932547;28;102075;-91
2021/07/11 00:15:55;;;;;;;8.88;8.07;;;;;;;22.58;73.75;100967.56;4928878;28;102517;-91
2021/07/11 00:18:24;;;;;;;9.10;8.20;;;;;;;22.58;73.97;100959.22;4919317;28;102170;-91
2021/07/11 00:20:51;;;;;;;8.82;7.97;;;;;;;22.58;73.70;100956.47;4900030;28;102401;-92
2021/07/11 00:23:18;;;;;;;8.98;8.18;;;;;;;22.58;73.83;100956.47;4932218;28;102372;-92
2021/07/11 00:25:45;;;;;;;9.05;8.20;;;;;;;22.56;73.89;100958.75;4915433;28;102720;-92
2021/07/11 00:28:13;;;;;;;8.77;8.00;;;;;;;22.58;73.86;100961.19;4914236;28;102847;-92
2021/07/11 00:30:39;;;;;;;8.80;7.95;;;;;;;22.58;73.88;100962.00;4936698;28;102805;-90
2021/07/11 00:33:06;;;;;;;9.20;8.35;;;;;;;22.58;73.94;100956.47;4910563;28;102782;-90
2021/07/11 00:35:33;;;;;;;8.88;8.07;;;;;;;22.58;73.98;100962.00;4913667;28;104405;-89
2021/07/11 00:38:00;;;;;;;8.32;7.63;;;;;;;22.58;74.01;100959.22;4909136;28;102485;-89
2021/07/11 00:40:27;;;;;;;8.85;8.15;;;;;;;22.58;74.15;100955.66;4929904;28;102711;-89
2021/07/11 00:42:54;;;;;;;9.40;8.43;;;;;;;22.59;73.99;100963.63;4916748;28;102727;-89
2021/07/11 00:45:25;;;;;;;9.07;8.30;;;;;;;22.59;74.28;100958.06;4918168;28;103477;-89
2021/07/11 00:47:52;;;;;;;8.40;7.57;;;;;;;22.59;74.18;100954.50;4912555;28;102479;-89
2021/07/11 00:50:20;;;;;;;8.48;7.68;;;;;;;22.59;74.01;100946.97;4913570;28;102955;-89
2021/07/11 00:52:47;;;;;;;9.38;8.48;;;;;;;22.59;74.27;100946.97;4930284;28;102491;-89
2021/07/11 00:55:13;;;;;;;8.70;7.80;;;;;;;22.58;74.16;100950.91;4925808;28;102543;-91
2021/07/11 00:57:40;;;;;;;9.10;8.30;;;;;;;22.59;74.38;100946.16;4898848;28;102237;-90
2021/07/11 01:00:11;;;;;;;12.93;7.80;;;;;;;22.59;74.31;100946.16;4913736;28;102204;-90
2021/07/11 01:02:47;;;;;;;7.85;7.15;;;;;;;22.59;74.35;100944.19;4933200;28;102708;-89
2021/07/11 01:05:15;;;;;;;8.32;7.63;;;;;;;22.57;74.28;100938.19;4927921;28;105416;-89
2021/07/11 01:07:45;;;;;;;8.55;7.75;;;;;;;22.58;74.43;100962.00;4914343;28;102403;-89
2021/07/11 01:10:22;;;;;;;8.90;8.10;;;;;;;22.59;74.28;100958.06;4930789;28;102635;-89
2021/07/11 01:12:53;;;;;;;8.68;7.57;;;;;;;22.57;73.96;100938.19;4915829;28;102473;-89
2021/07/11 01:15:22;;;;;;;9.20;8.30;;;;;;;22.56;73.91;100950.44;4927222;28;103905;-90
2021/07/11 01:17:52;;;;;;;;;;;;;;;22.58;73.95;100945.38;4908632;28;102651;-90
2021/07/11 01:20:32;;;;;;;8.32;7.53;;;;;;;22.58;74.42;100953.69;4914046;28;102799;-91
2021/07/11 01:22:59;;;;;;;9.23;8.35;;;;;;;22.55;74.37;100935.75;4905372;28;102853;-90
2021/07/11 01:25:35;;;;;;;8.32;7.53;;;;;;;22.58;74.25;100950.09;4898703;28;105642;-93
2021/07/11 01:28:06;;;;;;;8.80;8.00;;;;;;;22.57;74.21;100949.28;4913225;28;102489;-93
2021/07/11 01:30:34;;;;;;;9.05;8.25;;;;;;;22.56;74.24;100939.34;4922355;28;102483;-93
2021/07/11 01:33:03;;;;;;;8.88;8.07;;;;;;;22.56;74.33;100944.88;4902022;28;102278;-93
2021/07/11 01:35:30;;;;;;;9.13;8.23;;;;;;;22.56;74.11;100936.56;4898079;28;105114;-94
2021/07/11 01:37:58;;;;;;;8.77;7.97;;;;;;;22.56;74.15;100953.22;4917586;28;102577;-93
2021/07/11 01:40:27;;;;;;;8.80;8.00;;;;;;;22.56;74.47;100942.13;4915014;28;102638;-94
2021/07/11 01:42:57;;;;;;;9.23;8.05;;;;;;;22.55;74.33;100934.97;4903924;28;102533;-96
2021/07/11 01:45:24;;;;;;;8.20;7.45;;;;;;;22.55;74.29;100930.22;4921582;28;102401;-96
2021/07/11 01:47:53;;;;;;;8.63;7.75;;;;;;;22.55;74.42;100934.97;4906346;28;101322;-96
2021/07/11 01:50:22;;;;;;;8.45;7.65;;;;;;;22.55;74.29;100944.09;4923863;28;101409;-96
2021/07/11 01:52:53;;;;;;;9.02;8.20;;;;;;;22.56;74.14;100942.13;4920104;28;101426;-96
2021/07/11 01:55:30;;;;;;;8.90;8.15;;;;;;;22.55;74.22;100935.75;4904051;28;102500;-94
2021/07/11 01:58:04;;;;;;;9.13;8.30;;;;;;;22.55;74.20;100934.97;4923061;28;102210;-95
2021/07/11 02:00:34;;;;;;;9.82;8.82;;;;;;;22.55;74.33;100937.72;4902089;28;102349;-94
2021/07/11 02:03:24;;;;;;;8.75;8.05;;;;;;;22.55;74.42;100954.38;4917325;28;102736;-94
2021/07/11 02:06:42;;;;;;;;;;;;;;;;;;;;;
2021/07/11 02:09:23;;;;;;;8.65;7.85;;;;;;;22.54;74.02;100947.22;4910163;28;102189;-92
2021/07/11 02:11:50;;;;;;;8.65;7.85;;;;;;;22.55;73.99;100946.06;4913273;28;103552;-91
2021/07/11 02:16:55;;;;;;;8.50;7.63;;;;;;;22.55;74.43;100949.63;4942856;28;102596;-61
2021/07/11 04:20:54;;;;;;;8.10;7.40;;;;;;;22.55;74.44;100960.72;4920438;28;104024;-61
2021/07/11 04:23:23;;;;;;;8.93;8.13;;;;;;;22.56;74.10;100958.75;4929194;28;102018;-62
2021/07/11 08:19:13;;;;;;;9.77;8.88;;;;;;;22.85;73.80;100979.09;4905556;28;102493;-61
2021/07/11 09:18:33;;;;;;;10.43;8.82;;;;;;;23.09;72.82;100962.44;4945081;23;102180;-62
2021/07/11 10:18:05;;;;;;;11.25;10.25;;;;;;;23.09;72.98;100948.56;4948362;22;102604;-61
2021/07/11 11:16:48;;;;;;;13.93;12.63;;;;;;;23.03;72.97;100945.22;4949208;23;102586;-56
2021/07/11 11:19:17;;;;;;;14.10;12.90;;;;;;;23.01;73.07;100957.84;4946917;28;102367;-56
2021/07/11 12:17:13;;;;;;;14.27;13.07;;;;;;;22.98;72.80;100981.53;4941341;23;102346;-57
2021/07/11 12:19:44;;;;;;;15.50;14.23;;;;;;;22.99;73.03;100979.56;4952705;28;102414;-56
2021/07/11 14:17:39;;;;;;;15.93;14.57;;;;;;;22.84;73.08;100836.78;4889252;28;103652;-56
2021/07/11 14:20:08;;;;;;;16.38;14.73;;;;;;;22.85;73.02;100843.13;4894688;28;103939;-56
2021/07/11 15:15:27;;;;;;;14.63;13.43;;;;;;;22.83;72.91;100812.13;4907587;22;102288;-56
2021/07/11 16:14:58;;;;;;;15.50;14.00;;;;;;;22.80;73.22;100855.28;4948128;22;102400;-56
2021/07/11 18:14:17;;;;;;;12.98;11.90;;;;;;;22.70;73.50;100864.88;4936867;22;102084;-56
2021/07/11 19:13:49;;;;;;;14.02;12.82;;;;;;;22.66;73.14;100936.09;4942067;28;102195;-57
2021/07/11 20:15:28;;;;;;;13.17;12.07;;;;;;;22.64;73.73;100888.47;4948678;23;102210;-55
2021/07/11 21:13:03;;;;;;;11.98;10.90;;;;;;;22.63;73.89;100900.72;4938704;28;103477;-56
2021/07/11 21:15:31;;;;;;;12.07;10.90;;;;;;;22.64;73.86;100916.22;4910627;28;103561;-56
2021/07/11 21:18:02;;;;;;;12.43;11.23;;;;;;;22.64;73.62;100910.66;4906110;28;102709;-56
2021/07/11 21:20:31;;;;;;;11.80;10.82;;;;;;;22.65;74.16;100911.50;4921188;28;102819;-57
2021/07/11 21:22:58;;;;;;;11.27;10.27;;;;;;;22.64;73.81;100907.88;4909671;28;102565;-56
2021/07/11 21:25:25;;;;;;;11.52;10.35;;;;;;;22.65;73.88;100905.94;4891095;28;102202;-56
2021/07/11 22:15:17;;;;;;;;;;;;;;;22.61;73.50;100883.66;4908338;28;102615;-56
2021/07/11 22:17:50;;;;;;;11.27;10.23;;;;;;;22.61;73.64;100883.66;4918365;28;102461;-56
2021/07/11 22:20:16;;;;;;;11.10;10.10;;;;;;;22.61;73.60;100891.97;4910701;28;102502;-56
2021/07/11 22:22:46;;;;;;;11.00;10.07;;;;;;;22.61;73.71;100883.66;4908834;28;104047;-56
2021/07/11 22:25:13;;;;;;;10.80;9.80;;;;;;;22.61;73.70;100893.91;4910086;28;102142;-56
2021/07/11 22:27:41;;;;;;;9.90;8.93;;;;;;;22.61;73.65;100889.19;4910312;28;102654;-56
2021/07/11 22:30:11;;;;;;;10.00;9.10;;;;;;;22.61;73.43;100883.66;4920882;28;102681;-56
2021/07/11 23:14:13;;;;;;;9.68;8.88;;;;;;;22.58;73.65;100866.91;4925994;23;102648;-56
2021/07/11 23:16:39;;;;;;;10.07;9.20;;;;;;;22.59;73.74;100869.31;4943992;28;103932;-56
